Arvada, Colorado
Current Conditions -  °F | °C
As of 5:55 PM on Friday 19 Dec 2014 (Local Time) from KBJC Reporting Station
Scattered Clouds Scattered Clouds  
Wind Chill: 31°   Ceiling: Unl
Heat Index: 37°   Visibility: 30mi
Dew Point: 12°   Wind: 9mph
Humidity: 36%   Direction: 250°WSW
Pressure: 30.01"   Gusts: NA
Location:  39.8°N, 105.08°W
Report Text: KBJC 200055Z 25008KT 30SM SCT120 03/M11 A3001
Loading
Personal Weather Stations






























Interactive Weather Map New forecast layout! Learn more

10-Day Weather Forecast

Advertisements
Track Severe Weather on mobile